Time;durP1;ratioP1;P1;durP2;ratioP2;P2;SDS_P1;SDS_P2;PMS_P1;PMS_P2;Temp;Humidity;BMP_temperature;BMP_pressure;BME280_temperature;BME280_humidity;BME280_pressure;Samples;Min_cycle;Max_cycle;Signal;HPM_P1;HPM_P2
2023/04/16 00:02:21;;;;;;;67.25;31.75;;;;;;;7.90;100.00;-18240.75;4982006;28;20476;-88
2023/04/16 00:04:46;;;;;;;67.90;33.70;;;;;;;7.84;100.00;-18239.22;4987669;28;20042;-87
2023/04/16 00:07:12;;;;;;;71.22;32.95;;;;;;;7.85;100.00;-18239.50;4987496;28;20174;-87
2023/04/16 00:09:37;;;;;;;73.53;33.85;;;;;;;7.89;100.00;-18240.59;5003300;28;20069;-87
2023/04/16 00:12:03;;;;;;;71.72;29.65;;;;;;;7.91;100.00;-18241.16;4987845;28;20509;-88
2023/04/16 00:14:29;;;;;;;71.25;36.10;;;;;;;7.87;100.00;-18240.06;4987686;28;20120;-87
2023/04/16 00:16:54;;;;;;;74.60;35.17;;;;;;;7.87;100.00;-18240.06;5001231;28;20137;-87
2023/04/16 00:19:20;;;;;;;68.72;34.33;;;;;;;7.89;100.00;-18240.47;4987373;28;20040;-87
2023/04/16 00:21:45;;;;;;;75.15;33.00;;;;;;;7.89;100.00;-18240.47;4988175;28;20038;-87
2023/04/16 00:24:10;;;;;;;72.68;35.22;;;;;;;7.84;100.00;-18239.22;4988785;28;20034;-87
2023/04/16 00:26:39;;;;;;;76.85;36.90;;;;;;;7.88;100.00;-18240.19;5005008;28;20050;-88
2023/04/16 00:29:05;;;;;;;69.00;31.63;;;;;;;7.87;100.00;-18240.06;5004344;28;20042;-88
2023/04/16 00:31:31;;;;;;;76.80;38.10;;;;;;;7.91;100.00;-18241.16;4989558;28;20039;-87
2023/04/16 00:33:58;;;;;;;82.07;36.50;;;;;;;7.99;100.00;-18243.09;4986801;28;20058;-87
2023/04/16 00:36:25;;;;;;;77.82;36.78;;;;;;;7.95;100.00;-18242.13;5002607;28;20046;-87
2023/04/16 00:38:51;;;;;;;79.35;35.88;;;;;;;7.94;100.00;-18241.72;4986570;28;20641;-87
2023/04/16 00:41:17;;;;;;;77.18;34.15;;;;;;;7.91;100.00;-18241.16;4982770;28;20046;-87
2023/04/16 00:43:42;;;;;;;80.15;35.47;;;;;;;7.93;100.00;-18241.44;4984030;28;20467;-87
2023/04/16 00:46:08;;;;;;;80.80;37.65;;;;;;;7.90;100.00;-18240.88;4982913;28;20038;-87
2023/04/16 00:48:36;;;;;;;86.40;38.65;;;;;;;7.92;100.00;-18241.31;4983838;28;20627;-87
2023/04/16 00:51:04;;;;;;;87.68;39.05;;;;;;;7.92;100.00;-18241.31;4982430;28;20042;-87
2023/04/16 00:53:30;;;;;;;83.47;39.03;;;;;;;7.94;100.00;-18241.72;4984029;28;20051;-87
2023/04/16 00:55:56;;;;;;;85.25;39.72;;;;;;;7.91;100.00;-18241.03;4983106;28;20768;-87
2023/04/16 00:58:22;;;;;;;83.45;38.25;;;;;;;7.89;100.00;-18240.59;4996239;28;20034;-87
2023/04/16 01:00:48;;;;;;;90.15;39.05;;;;;;;7.91;100.00;-18241.16;4982882;28;20529;-87
2023/04/16 01:03:13;;;;;;;82.32;37.60;;;;;;;7.98;100.00;-18242.81;4984122;28;20070;-87
2023/04/16 01:05:39;;;;;;;94.60;40.25;;;;;;;7.93;100.00;-18241.44;4983602;28;20042;-87
2023/04/16 01:08:05;;;;;;;91.32;43.33;;;;;;;7.94;100.00;-18241.72;4982946;28;20053;-87
2023/04/16 01:10:30;;;;;;;92.80;42.60;;;;;;;7.94;100.00;-18241.84;4982788;28;20042;-87
2023/04/16 01:12:55;;;;;;;99.55;38.05;;;;;;;7.97;100.00;-18242.53;4985699;28;20042;-87
2023/04/16 01:15:21;;;;;;;96.68;42.05;;;;;;;7.94;100.00;-18241.72;4986512;28;20046;-87
2023/04/16 01:17:46;;;;;;;94.95;43.33;;;;;;;7.95;100.00;-18242.00;4985066;28;20523;-87
2023/04/16 01:20:12;;;;;;;94.65;44.05;;;;;;;7.94;100.00;-18241.72;4986824;28;20505;-87
2023/04/16 01:22:37;;;;;;;92.03;45.20;;;;;;;7.91;100.00;-18241.16;4986785;28;20108;-87
2023/04/16 01:25:02;;;;;;;98.03;43.40;;;;;;;7.91;100.00;-18241.16;4986341;28;20305;-87
2023/04/16 01:27:28;;;;;;;100.45;44.13;;;;;;;7.90;100.00;-18240.88;4987400;28;20042;-87
2023/04/16 01:29:55;;;;;;;99.20;44.72;;;;;;;7.93;100.00;-18241.44;4986379;28;20521;-88
2023/04/16 01:32:20;;;;;;;95.60;44.22;;;;;;;7.94;100.00;-18241.72;4986997;28;20042;-87
2023/04/16 01:34:46;;;;;;;99.60;44.78;;;;;;;7.94;100.00;-18241.72;4984936;28;20042;-87
2023/04/16 01:37:11;;;;;;;95.68;41.97;;;;;;;7.99;100.00;-18243.22;4982933;28;20758;-87
2023/04/16 01:39:36;;;;;;;93.40;43.83;;;;;;;7.98;100.00;-18242.81;4986969;28;20046;-87
2023/04/16 01:42:02;;;;;;;89.95;41.25;;;;;;;7.99;100.00;-18243.22;4987638;28;20100;-87
2023/04/16 01:44:27;;;;;;;102.28;45.95;;;;;;;7.98;100.00;-18242.81;4985038;28;20130;-87
2023/04/16 01:46:53;;;;;;;100.28;43.17;;;;;;;7.98;100.00;-18242.94;4987850;28;20425;-87
2023/04/16 01:49:18;;;;;;;100.57;47.38;;;;;;;7.98;100.00;-18242.81;4986756;28;20042;-87
2023/04/16 01:51:44;;;;;;;96.53;44.90;;;;;;;8.01;100.00;-18243.63;4984922;28;20053;-87
2023/04/16 01:54:09;;;;;;;108.85;47.60;;;;;;;8.05;100.00;-18244.75;4986820;28;20081;-88
2023/04/16 01:56:34;;;;;;;94.35;39.95;;;;;;;8.02;100.00;-18243.91;5001383;28;20049;-87
2023/04/16 01:59:00;;;;;;;110.40;46.67;;;;;;;8.06;100.00;-18245.03;4985435;28;20104;-87
2023/04/16 02:01:25;;;;;;;98.38;45.83;;;;;;;8.08;100.00;-18245.56;4987183;28;20066;-87
2023/04/16 02:03:51;;;;;;;106.45;45.08;;;;;;;8.10;100.00;-18246.13;4988018;28;20493;-87
2023/04/16 02:06:17;;;;;;;104.40;45.58;;;;;;;8.12;100.00;-18246.66;4987104;28;20050;-87
2023/04/16 02:08:42;;;;;;;105.60;46.05;;;;;;;8.18;100.00;-18248.31;4987365;28;20060;-87
2023/04/16 02:11:08;;;;;;;100.32;46.35;;;;;;;8.22;100.00;-18249.28;4985740;28;20049;-87
2023/04/16 02:13:33;;;;;;;100.88;46.80;;;;;;;8.13;100.00;-18247.09;4988450;28;20532;-87
2023/04/16 02:15:59;;;;;;;96.20;47.42;;;;;;;8.11;100.00;-18246.38;4985884;28;20068;-88
2023/04/16 02:18:24;;;;;;;101.75;47.80;;;;;;;8.13;100.00;-18247.09;4986222;28;20579;-87
2023/04/16 02:20:50;;;;;;;100.43;47.60;;;;;;;8.14;100.00;-18247.22;4987945;28;20075;-88
2023/04/16 02:23:16;;;;;;;99.90;46.08;;;;;;;8.14;100.00;-18247.22;4984133;28;20042;-87
2023/04/16 02:25:43;;;;;;;101.43;46.85;;;;;;;8.11;100.00;-18246.38;4985769;28;20034;-86
2023/04/16 02:28:10;;;;;;;104.15;49.97;;;;;;;8.11;100.00;-18246.38;4987289;28;20065;-87
2023/04/16 02:30:36;;;;;;;111.90;48.20;;;;;;;8.17;100.00;-18247.91;5000615;28;20042;-87
2023/04/16 02:33:06;;;;;;;96.25;46.10;;;;;;;8.15;100.00;-18247.50;4992562;28;20034;-87
2023/04/16 02:35:32;;;;;;;98.80;48.17;;;;;;;8.18;100.00;-18248.31;4999612;28;20129;-87
2023/04/16 02:37:58;;;;;;;92.13;46.35;;;;;;;8.20;100.00;-18248.88;4987535;28;20042;-87
2023/04/16 02:40:24;;;;;;;96.88;49.22;;;;;;;8.22;100.00;-18249.41;4985632;28;20100;-87
2023/04/16 02:42:49;;;;;;;100.40;45.20;;;;;;;8.23;100.00;-18249.56;4987248;28;20069;-87
2023/04/16 02:45:15;;;;;;;93.95;41.20;;;;;;;8.26;100.00;-18250.38;4985462;28;20092;-87
2023/04/16 02:47:40;;;;;;;98.47;46.83;;;;;;;8.25;100.00;-18250.25;4985961;28;20039;-87
2023/04/16 02:50:06;;;;;;;94.25;46.58;;;;;;;8.23;100.00;-18249.56;5002004;28;20038;-87
2023/04/16 02:52:32;;;;;;;99.75;44.38;;;;;;;8.23;100.00;-18249.69;4971119;28;20125;-87
2023/04/16 02:54:58;;;;;;;93.63;48.55;;;;;;;8.22;100.00;-18249.41;4985424;28;20077;-87
2023/04/16 02:57:23;;;;;;;96.10;46.30;;;;;;;8.25;100.00;-18250.09;4986158;28;20552;-88
2023/04/16 02:59:48;;;;;;;87.68;44.22;;;;;;;8.20;100.00;-18248.72;4985806;28;20034;-87
2023/04/16 03:02:14;;;;;;;83.97;44.00;;;;;;;8.21;100.00;-18249.00;4985672;28;20070;-87
2023/04/16 03:04:40;;;;;;;82.50;45.72;;;;;;;8.20;100.00;-18248.88;4984785;28;20038;-87
2023/04/16 03:07:05;;;;;;;77.22;43.78;;;;;;;8.18;100.00;-18248.31;4985185;28;20117;-87
2023/04/16 03:09:30;;;;;;;81.45;44.92;;;;;;;8.20;100.00;-18248.88;4985906;28;20149;-86
2023/04/16 03:11:56;;;;;;;80.78;43.53;;;;;;;8.23;100.00;-18249.69;4986342;28;20057;-87
2023/04/16 03:14:21;;;;;;;79.65;45.15;;;;;;;8.20;100.00;-18248.88;4984534;28;20046;-87
2023/04/16 03:16:47;;;;;;;87.05;43.60;;;;;;;8.23;100.00;-18249.56;4990410;28;20076;-87
2023/04/16 03:19:12;;;;;;;78.30;44.17;;;;;;;8.25;100.00;-18250.09;5002163;28;20057;-87
2023/04/16 03:21:37;;;;;;;77.25;42.60;;;;;;;8.25;100.00;-18250.25;5018909;28;20056;-87
2023/04/16 03:24:03;;;;;;;81.20;42.97;;;;;;;8.23;100.00;-18249.69;4997693;28;20092;-87
2023/04/16 03:26:28;;;;;;;78.38;43.45;;;;;;;8.25;100.00;-18250.09;5003068;28;20046;-87
2023/04/16 03:28:53;;;;;;;81.90;45.15;;;;;;;8.23;100.00;-18249.69;5001801;28;20038;-88
2023/04/16 03:31:18;;;;;;;76.57;42.22;;;;;;;8.25;100.00;-18250.25;5000315;28;20052;-87
2023/04/16 03:33:44;;;;;;;79.22;44.45;;;;;;;8.22;100.00;-18249.28;4985028;28;20189;-87
2023/04/16 03:36:10;;;;;;;76.78;41.10;;;;;;;8.23;100.00;-18249.69;4983853;28;20111;-87
2023/04/16 03:38:35;;;;;;;73.45;42.67;;;;;;;8.20;100.00;-18248.88;4985393;28;20054;-87
2023/04/16 03:41:00;;;;;;;77.18;41.28;;;;;;;8.20;100.00;-18248.88;4983496;28;20045;-87
2023/04/16 03:43:26;;;;;;;71.70;40.53;;;;;;;8.20;100.00;-18248.88;4984981;28;20509;-87
2023/04/16 03:45:51;;;;;;;74.70;39.30;;;;;;;8.22;100.00;-18249.41;4983157;28;20723;-87
2023/04/16 03:48:16;;;;;;;73.53;40.22;;;;;;;8.21;100.00;-18249.16;4983406;28;20389;-88
2023/04/16 03:50:46;;;;;;;70.78;39.70;;;;;;;8.20;100.00;-18248.88;4985325;28;20476;-87
2023/04/16 03:53:12;;;;;;;66.45;37.75;;;;;;;8.23;100.00;-18249.69;4985883;28;20441;-87
2023/04/16 03:55:37;;;;;;;72.53;40.63;;;;;;;8.24;100.00;-18249.97;4984044;28;20122;-88
2023/04/16 03:58:03;;;;;;;69.05;39.15;;;;;;;8.24;100.00;-18249.84;4999096;28;20409;-87
2023/04/16 04:00:29;;;;;;;66.20;38.78;;;;;;;8.22;100.00;-18249.41;4983678;28;20476;-87
2023/04/16 04:02:55;;;;;;;64.53;37.47;;;;;;;8.23;100.00;-18249.69;4985123;28;20042;-87
2023/04/16 04:05:20;;;;;;;66.03;40.25;;;;;;;8.21;100.00;-18249.00;4984944;28;20121;-87
2023/04/16 04:07:45;;;;;;;67.00;38.75;;;;;;;8.20;100.00;-18248.88;4984417;28;20687;-88
2023/04/16 04:10:11;;;;;;;71.03;40.33;;;;;;;8.20;100.00;-18248.88;5000357;28;20045;-87
2023/04/16 04:12:36;;;;;;;68.68;38.83;;;;;;;8.19;100.00;-18248.59;4982314;28;20046;-87
2023/04/16 04:15:02;;;;;;;63.40;38.33;;;;;;;8.20;100.00;-18248.88;4983077;28;20061;-87
2023/04/16 04:17:27;;;;;;;70.38;40.70;;;;;;;8.17;100.00;-18247.91;4984811;28;20520;-87
2023/04/16 04:19:52;;;;;;;71.07;40.65;;;;;;;8.16;100.00;-18247.78;4984136;28;20232;-87
2023/04/16 04:22:18;;;;;;;67.65;40.80;;;;;;;8.19;100.00;-18248.59;4984386;28;20042;-87
2023/04/16 04:24:43;;;;;;;72.88;41.47;;;;;;;8.17;100.00;-18247.91;4983237;28;20129;-87
2023/04/16 04:27:09;;;;;;;66.10;38.95;;;;;;;8.17;100.00;-18248.03;4985356;28;20329;-87
2023/04/16 04:29:34;;;;;;;65.30;40.22;;;;;;;8.16;100.00;-18247.78;4984762;28;20561;-87
2023/04/16 04:32:00;;;;;;;66.43;39.75;;;;;;;8.17;100.00;-18247.91;4986151;28;20493;-87
2023/04/16 04:34:25;;;;;;;63.67;37.78;;;;;;;8.17;100.00;-18248.03;4983337;28;20151;-87
2023/04/16 04:36:50;;;;;;;65.82;39.65;;;;;;;8.16;100.00;-18247.63;4982569;28;20049;-87
2023/04/16 04:39:16;;;;;;;65.18;39.47;;;;;;;8.14;100.00;-18247.22;4983081;28;20034;-87
2023/04/16 04:41:41;;;;;;;70.32;40.00;;;;;;;8.17;100.00;-18247.91;4983631;28;20058;-88
2023/04/16 04:44:07;;;;;;;70.47;40.30;;;;;;;8.17;100.00;-18248.03;4982274;28;20394;-87
2023/04/16 04:46:32;;;;;;;65.10;40.25;;;;;;;8.19;100.00;-18248.59;4987685;28;20047;-87
2023/04/16 04:48:57;;;;;;;66.97;39.67;;;;;;;8.19;100.00;-18248.59;4989283;28;20046;-87
2023/04/16 04:51:23;;;;;;;64.82;37.38;;;;;;;8.23;100.00;-18249.56;4988175;28;21652;-87
2023/04/16 04:53:48;;;;;;;71.00;38.28;;;;;;;8.24;100.00;-18249.97;4988691;28;20058;-88
2023/04/16 04:56:13;;;;;;;68.10;37.30;;;;;;;8.28;100.00;-18251.06;4987885;28;20046;-87
2023/04/16 04:58:40;;;;;;;64.25;41.10;;;;;;;8.25;100.00;-18250.25;4983665;28;20058;-87
2023/04/16 05:01:05;;;;;;;61.60;38.75;;;;;;;8.26;100.00;-18250.53;4986931;28;20049;-87
2023/04/16 05:03:31;;;;;;;70.60;40.75;;;;;;;8.25;100.00;-18250.25;4988219;28;20054;-87
2023/04/16 05:05:56;;;;;;;63.63;39.80;;;;;;;8.29;100.00;-18251.34;4987323;28;20054;-87
2023/04/16 05:08:21;;;;;;;67.38;39.45;;;;;;;8.29;100.00;-18251.34;4980408;28;20046;-87
2023/04/16 05:10:47;;;;;;;67.43;41.65;;;;;;;8.30;100.00;-18251.50;4986604;28;20635;-88
2023/04/16 05:13:12;;;;;;;70.10;40.55;;;;;;;8.34;100.00;-18252.72;4986560;28;20492;-87
2023/04/16 05:15:38;;;;;;;63.42;40.22;;;;;;;8.33;100.00;-18252.44;4987051;28;20054;-87
2023/04/16 05:18:03;;;;;;;66.90;41.55;;;;;;;8.35;100.00;-18252.88;4998393;28;20049;-87
2023/04/16 05:20:28;;;;;;;65.10;41.53;;;;;;;8.38;100.00;-18253.56;4993593;28;20568;-87
2023/04/16 05:22:54;;;;;;;69.47;41.92;;;;;;;8.41;100.00;-18254.53;4989304;28;20100;-88
2023/04/16 05:25:20;;;;;;;62.55;39.42;;;;;;;8.39;100.00;-18253.84;4990363;28;20501;-87
2023/04/16 05:27:45;;;;;;;63.92;41.15;;;;;;;8.39;100.00;-18253.84;4988398;28;20217;-87
2023/04/16 05:30:11;;;;;;;63.85;40.50;;;;;;;8.33;100.00;-18252.44;4970674;28;20051;-87
2023/04/16 05:32:39;;;;;;;69.97;41.67;;;;;;;8.32;100.00;-18252.03;4988245;28;20046;-87
2023/04/16 05:35:05;;;;;;;68.97;43.97;;;;;;;8.31;100.00;-18251.75;4986607;28;20045;-87
2023/04/16 05:37:31;;;;;;;71.10;42.35;;;;;;;8.32;100.00;-18252.19;4987623;28;20061;-87
2023/04/16 05:39:56;;;;;;;71.10;42.78;;;;;;;8.30;100.00;-18251.63;4993385;28;20066;-87
2023/04/16 05:42:21;;;;;;;70.10;40.22;;;;;;;8.33;100.00;-18252.31;4987701;28;20077;-86
2023/04/16 05:44:46;;;;;;;64.78;40.75;;;;;;;8.34;100.00;-18252.59;4987206;28;20074;-87
2023/04/16 05:47:12;;;;;;;68.68;43.30;;;;;;;8.32;100.00;-18252.03;4986440;28;20046;-87
2023/04/16 05:49:37;;;;;;;65.50;41.45;;;;;;;8.32;100.00;-18252.19;4986725;28;20751;-88
2023/04/16 05:52:03;;;;;;;72.93;44.33;;;;;;;8.33;100.00;-18252.44;4986476;28;20046;-87
2023/04/16 05:54:28;;;;;;;73.82;41.42;;;;;;;8.34;100.00;-18252.72;5002721;28;20034;-87
2023/04/16 05:56:54;;;;;;;68.43;43.47;;;;;;;8.38;100.00;-18253.56;5000681;28;20101;-87
2023/04/16 05:59:19;;;;;;;67.95;43.75;;;;;;;8.42;100.00;-18254.66;4986366;28;20497;-87
2023/04/16 06:01:45;;;;;;;68.78;42.92;;;;;;;8.40;100.00;-18254.09;4987914;28;20611;-87
2023/04/16 06:04:10;;;;;;;68.65;43.65;;;;;;;8.41;100.00;-18254.53;4986822;28;20042;-88
2023/04/16 06:06:36;;;;;;;69.72;41.17;;;;;;;8.47;100.00;-18256.16;4986992;28;20100;-87
2023/04/16 06:09:02;;;;;;;63.97;43.80;;;;;;;8.47;100.00;-18256.03;4988289;28;20126;-86
2023/04/16 06:11:31;;;;;;;65.60;41.78;;;;;;;8.40;100.00;-18254.25;5001238;28;20054;-86
2023/04/16 06:13:56;;;;;;;60.42;39.88;;;;;;;8.42;100.00;-18254.66;4986753;28;20493;-87
2023/04/16 06:16:22;;;;;;;55.75;36.95;;;;;;;8.40;100.00;-18254.25;5003537;28;20049;-87
2023/04/16 06:18:47;;;;;;;56.75;38.35;;;;;;;8.41;100.00;-18254.38;4989665;28;20081;-87
2023/04/16 06:21:12;;;;;;;62.65;38.05;;;;;;;8.47;100.00;-18256.16;4986559;28;20045;-87
2023/04/16 06:23:38;;;;;;;59.03;38.08;;;;;;;8.51;100.00;-18257.13;4988091;28;20046;-87
2023/04/16 06:26:03;;;;;;;61.60;37.58;;;;;;;8.55;100.00;-18258.38;4988188;28;20046;-87
2023/04/16 06:28:29;;;;;;;57.67;37.22;;;;;;;8.55;100.00;-18258.25;4985243;28;20050;-87
2023/04/16 06:30:54;;;;;;;56.75;38.65;;;;;;;8.63;100.00;-18260.31;4986021;28;20085;-87
2023/04/16 06:33:20;;;;;;;52.95;36.20;;;;;;;8.63;100.00;-18260.31;4985671;28;20620;-86
2023/04/16 06:35:45;;;;;;;56.83;35.75;;;;;;;8.68;100.00;-18261.81;4984694;28;20096;-86
2023/04/16 06:38:11;;;;;;;54.80;35.55;;;;;;;8.69;100.00;-18261.94;4986966;28;20693;-87
2023/04/16 06:40:36;;;;;;;51.75;33.47;;;;;;;8.70;100.00;-18262.22;4987417;28;20049;-87
2023/04/16 06:43:02;;;;;;;47.95;32.40;;;;;;;8.68;100.00;-18261.81;4984516;28;20089;-86
2023/04/16 06:45:27;;;;;;;50.33;32.38;;;;;;;8.68;100.00;-18261.81;4990344;28;20463;-87
2023/04/16 06:47:52;;;;;;;49.20;33.05;;;;;;;8.71;100.00;-18262.63;4986616;28;20042;-87
2023/04/16 06:50:18;;;;;;;50.15;32.13;;;;;;;8.71;100.00;-18262.50;4984401;28;20465;-87
2023/04/16 06:52:43;;;;;;;52.50;32.65;;;;;;;8.70;100.00;-18262.38;4986616;28;20104;-87
2023/04/16 06:55:09;;;;;;;50.70;33.92;;;;;;;8.72;100.00;-18262.91;4992631;28;20815;-86
2023/04/16 06:57:35;;;;;;;46.92;31.95;;;;;;;8.75;100.00;-18263.59;5003124;28;20058;-86
2023/04/16 07:00:00;;;;;;;53.13;33.80;;;;;;;8.75;100.00;-18263.59;5000231;28;20041;-86
2023/04/16 07:02:25;;;;;;;46.97;32.05;;;;;;;8.78;100.00;-18264.56;5005360;28;20044;-86
2023/04/16 07:04:51;;;;;;;50.80;32.58;;;;;;;8.85;100.00;-18266.34;5005948;28;20049;-87
2023/04/16 07:07:17;;;;;;;48.30;32.25;;;;;;;8.83;100.00;-18265.81;5005473;28;20386;-86
2023/04/16 07:09:42;;;;;;;52.13;35.42;;;;;;;8.82;100.00;-18265.66;5004439;28;20042;-87
2023/04/16 07:12:08;;;;;;;50.05;32.60;;;;;;;8.87;100.00;-18266.78;5005538;28;20528;-86
2023/04/16 07:14:33;;;;;;;46.28;33.78;;;;;;;8.88;100.00;-18267.03;4988916;28;20053;-87
2023/04/16 07:16:58;;;;;;;48.92;32.30;;;;;;;8.83;100.00;-18265.81;5006634;28;20110;-86
2023/04/16 07:19:24;;;;;;;45.83;32.22;;;;;;;8.83;100.00;-18265.81;5008890;28;20084;-88
2023/04/16 07:21:50;;;;;;;45.75;32.05;;;;;;;8.81;100.00;-18265.41;5005287;28;20053;-87
2023/04/16 07:24:16;;;;;;;46.65;32.25;;;;;;;8.89;100.00;-18267.31;5005328;28;20107;-90
2023/04/16 07:26:44;;;;;;;44.28;32.35;;;;;;;8.89;100.00;-18267.31;4999673;28;20398;-90
2023/04/16 07:29:10;;;;;;;47.13;32.58;;;;;;;8.89;100.00;-18267.31;4987486;28;20559;-87
2023/04/16 07:31:35;;;;;;;48.00;32.28;;;;;;;8.90;100.00;-18267.59;4987829;28;20050;-87
2023/04/16 07:34:00;;;;;;;45.70;31.33;;;;;;;8.93;100.00;-18268.41;4989444;28;20038;-87
2023/04/16 07:36:27;;;;;;;45.05;32.17;;;;;;;8.92;100.00;-18268.16;4983538;28;20047;-87
2023/04/16 07:38:52;;;;;;;49.83;34.20;;;;;;;8.92;100.00;-18268.16;4984000;28;20101;-86
2023/04/16 07:41:22;;;;;;;46.63;33.80;;;;;;;8.89;100.00;-18267.31;4984255;28;20038;-89
2023/04/16 07:43:48;;;;;;;53.58;35.42;;;;;;;8.89;100.00;-18267.31;5000515;28;20051;-90
2023/04/16 07:46:19;;;;;;;55.53;34.92;;;;;;;8.89;100.00;-18267.47;4977083;28;20057;-90
2023/04/16 07:48:44;;;;;;;49.13;34.72;;;;;;;8.92;100.00;-18268.28;4967936;28;20640;-88
2023/04/16 07:51:13;;;;;;;45.17;31.90;;;;;;;9.01;100.00;-18270.75;4985490;28;20034;-90
2023/04/16 07:53:38;;;;;;;54.08;34.80;;;;;;;9.03;100.00;-18271.16;4978410;28;20046;-90
2023/04/16 07:56:03;;;;;;;51.30;33.92;;;;;;;9.08;100.00;-18272.53;4979955;28;20068;-87
2023/04/16 07:58:29;;;;;;;51.00;35.25;;;;;;;9.11;100.00;-18273.38;4965153;28;20046;-86
2023/04/16 08:00:54;;;;;;;53.00;33.55;;;;;;;9.19;100.00;-18275.56;4985489;28;20101;-86
2023/04/16 08:03:20;;;;;;;46.65;32.53;;;;;;;9.17;100.00;-18275.03;4974585;28;20050;-86
2023/04/16 08:05:45;;;;;;;48.47;34.10;;;;;;;9.19;100.00;-18275.56;4991747;28;20046;-87
2023/04/16 08:08:10;;;;;;;51.80;35.08;;;;;;;9.32;100.00;-18278.88;4990923;28;20089;-87
2023/04/16 08:10:36;;;;;;;48.30;33.45;;;;;;;9.37;100.00;-18280.25;4994899;28;20104;-87
2023/04/16 08:13:01;;;;;;;49.28;34.58;;;;;;;9.47;100.00;-18283.13;4995798;28;20081;-87
2023/04/16 08:15:26;;;;;;;49.15;35.40;;;;;;;9.42;100.00;-18281.63;5005967;28;20023;-87
2023/04/16 08:17:52;;;;;;;48.83;32.30;;;;;;;9.42;100.00;-18281.63;4990403;28;20538;-87
2023/04/16 08:20:17;;;;;;;47.20;33.45;;;;;;;9.57;100.00;-18285.75;4986692;28;20034;-87
2023/04/16 08:22:44;;;;;;;46.50;31.77;;;;;;;9.65;100.00;-18287.94;4988791;28;20042;-87
2023/04/16 08:25:10;;;;;;;45.05;32.30;;;;;;;9.77;100.00;-18291.13;4987030;28;20189;-87
2023/04/16 08:27:35;;;;;;;42.72;31.08;;;;;;;9.63;100.00;-18287.41;5003059;28;20541;-87
2023/04/16 08:30:01;;;;;;;43.50;33.22;;;;;;;9.77;100.00;-18290.97;4987128;28;20038;-87
2023/04/16 08:32:26;;;;;;;43.03;32.13;;;;;;;9.89;100.00;-18294.28;4979707;28;20058;-88
2023/04/16 08:34:52;;;;;;;45.50;30.77;;;;;;;9.81;100.00;-18292.22;4992931;28;20039;-87
2023/04/16 08:37:17;;;;;;;45.30;32.58;;;;;;;10.00;100.00;-18297.31;4987163;28;20038;-88
2023/04/16 08:39:42;;;;;;;47.50;34.08;;;;;;;9.96;100.00;-18296.06;4986183;28;20050;-88
2023/04/16 08:42:21;;;;;;;42.97;32.85;;;;;;;9.88;100.00;-18294.13;4987194;28;20469;-87
2023/04/16 08:44:50;;;;;;;43.03;33.17;;;;;;;9.87;100.00;-18293.88;4980972;28;20046;-88
2023/04/16 08:47:16;;;;;;;;;;;;;;;9.96;100.00;-18296.06;4987691;28;20034;-88
2023/04/16 08:49:45;;;;;;;43.25;33.50;;;;;;;9.89;100.00;-18294.28;4985960;28;19929;-88
2023/04/16 08:52:15;;;;;;;41.08;33.13;;;;;;;10.10;100.00;-18300.06;4983459;28;20050;-88
2023/04/16 08:55:04;;;;;;;44.75;34.58;;;;;;;10.13;100.00;-18300.88;4990150;28;20037;-89
2023/04/16 08:57:46;;;;;;;41.60;31.33;;;;;;;10.17;100.00;-18301.97;4986279;28;20046;-89
2023/04/16 09:00:12;;;;;;;42.65;32.33;;;;;;;10.20;100.00;-18302.53;4986830;28;20050;-88
2023/04/16 09:02:38;;;;;;;42.83;30.73;;;;;;;10.41;100.00;-18308.16;4988323;28;20105;-89
2023/04/16 09:05:05;;;;;;;41.92;31.85;;;;;;;10.49;100.00;-18310.50;5003279;28;20038;-89
2023/04/16 09:07:32;;;;;;;38.42;31.90;;;;;;;10.60;100.00;-18313.53;4999489;28;20616;-89
2023/04/16 09:09:59;;;;;;;46.85;32.30;;;;;;;10.60;100.00;-18313.38;5002361;28;20519;-89
2023/04/16 09:12:24;;;;;;;42.70;33.53;;;;;;;10.65;100.00;-18314.63;4987030;28;20053;-89
2023/04/16 09:14:50;;;;;;;41.60;32.28;;;;;;;10.59;100.00;-18313.25;5001801;28;20039;-89
2023/04/16 09:17:17;;;;;;;41.58;30.67;;;;;;;10.54;100.00;-18311.88;4986889;28;20034;-89
2023/04/16 09:19:43;;;;;;;42.55;30.83;;;;;;;10.70;100.00;-18316.13;4987097;28;20042;-89
2023/04/16 09:22:08;;;;;;;41.85;31.80;;;;;;;10.79;100.00;-18318.47;4985618;28;20532;-89
2023/04/16 09:24:33;;;;;;;41.17;28.85;;;;;;;10.94;100.00;-18322.59;5000728;28;20038;-89
2023/04/16 09:26:59;;;;;;;40.47;29.15;;;;;;;11.13;100.00;-18327.53;4990572;28;20528;-89
2023/04/16 09:29:35;;;;;;;38.67;28.63;;;;;;;11.23;100.00;-18330.41;4986517;28;20046;-89
2023/04/16 09:32:06;;;;;;;41.50;30.20;;;;;;;11.35;100.00;-18333.44;4987100;28;20371;-89
2023/04/16 09:34:32;;;;;;;38.40;29.08;;;;;;;11.35;100.00;-18333.44;4986268;28;20620;-89
2023/04/16 09:37:16;;;;;;;39.70;29.23;;;;;;;11.49;100.00;-18337.41;4984773;28;20509;-89
2023/04/16 09:39:43;;;;;;;40.42;29.48;;;;;;;11.46;100.00;-18336.47;4967084;28;20069;-89
2023/04/16 09:42:09;;;;;;;41.38;30.70;;;;;;;11.52;100.00;-18338.25;4986070;28;20097;-89
2023/04/16 09:44:36;;;;;;;36.75;28.15;;;;;;;11.48;100.00;-18337.16;4986417;28;20049;-88
2023/04/16 09:47:06;;;;;;;38.40;26.42;;;;;;;11.72;100.00;-18343.59;4982998;28;20050;-88
2023/04/16 09:49:41;;;;;;;40.05;28.33;;;;;;;11.76;100.00;-18344.56;4985033;28;20050;-88
2023/04/16 09:52:18;;;;;;;35.17;27.38;;;;;;;11.96;100.00;-18349.91;4982518;28;20480;-88
2023/04/16 09:55:01;;;;;;;35.67;25.92;;;;;;;11.99;100.00;-18350.59;4987131;28;20050;-88
2023/04/16 09:57:26;;;;;;;38.40;28.70;;;;;;;12.00;100.00;-18350.88;4987174;28;20046;-88
2023/04/16 10:00:01;;;;;;;36.50;27.42;;;;;;;12.01;100.00;-18351.28;4983667;28;20599;-88
2023/04/16 10:02:28;;;;;;;31.92;26.27;;;;;;;11.92;100.00;-18348.94;4994684;28;20048;-88
2023/04/16 10:04:57;;;;;;;34.83;24.63;;;;;;;12.03;100.00;-18351.69;4990497;28;20540;-88
2023/04/16 10:07:27;;;;;;;32.70;25.17;;;;;;;12.15;100.00;-18355.13;4987160;28;20046;-88
2023/04/16 10:09:53;;;;;;;32.08;24.90;;;;;;;12.32;100.00;-18359.66;4987324;28;20390;-88
2023/04/16 10:12:19;;;;;;;31.15;24.75;;;;;;;12.22;100.00;-18356.91;4986758;28;20038;-88
2023/04/16 10:14:45;;;;;;;30.38;24.42;;;;;;;12.31;100.00;-18359.25;4987507;28;20042;-88
2023/04/16 10:17:10;;;;;;;32.97;25.80;;;;;;;12.32;100.00;-18359.53;4987717;28;20034;-88
2023/04/16 10:19:36;;;;;;;32.20;23.70;;;;;;;12.46;100.00;-18363.22;4986807;28;20046;-88
2023/04/16 10:22:02;;;;;;;31.27;22.20;;;;;;;12.46;100.00;-18363.22;4986215;28;20042;-89
2023/04/16 10:24:32;;;;;;;31.13;23.10;;;;;;;12.59;100.00;-18366.78;4986624;28;20117;-88
2023/04/16 10:26:58;;;;;;;29.08;23.83;;;;;;;12.90;100.00;-18375.16;4986924;28;20035;-88
2023/04/16 10:29:28;;;;;;;33.60;23.85;;;;;;;13.01;100.00;-18378.16;4986108;28;20485;-87
2023/04/16 10:31:55;;;;;;;29.23;22.15;;;;;;;12.84;100.00;-18373.63;4985684;28;20049;-88
2023/04/16 10:34:21;;;;;;;28.80;22.00;;;;;;;12.79;100.00;-18372.28;4984356;28;20042;-88
2023/04/16 10:36:49;;;;;;;28.33;22.85;;;;;;;12.81;100.00;-18372.69;4987180;28;20505;-88
2023/04/16 10:39:19;;;;;;;27.05;21.70;;;;;;;13.03;100.00;-18378.72;4985084;28;20460;-89
2023/04/16 10:41:45;;;;;;;30.73;22.38;;;;;;;13.27;100.00;-18385.16;4986359;28;20042;-88
2023/04/16 10:44:11;;;;;;;28.45;20.90;;;;;;;13.28;100.00;-18385.44;4984323;28;20532;-88
2023/04/16 10:46:41;;;;;;;26.58;20.52;;;;;;;13.02;100.00;-18378.31;4986271;28;20049;-88
2023/04/16 10:49:13;;;;;;;25.77;20.40;;;;;;;13.14;100.00;-18381.47;4981426;28;20109;-88
2023/04/16 10:51:39;;;;;;;27.60;20.65;;;;;;;13.23;100.00;-18384.06;4983694;28;20058;-88
2023/04/16 10:54:08;;;;;;;24.20;19.50;;;;;;;13.28;100.00;-18385.44;4986654;28;20511;-87
2023/04/16 10:56:35;;;;;;;24.13;18.52;;;;;;;13.27;100.00;-18385.16;4985414;28;20042;-88
2023/04/16 10:59:04;;;;;;;23.48;18.85;;;;;;;13.27;100.00;-18385.16;4992017;28;20072;-88
2023/04/16 11:01:32;;;;;;;25.35;19.10;;;;;;;13.36;100.00;-18387.34;4984728;28;20038;-88
2023/04/16 11:04:20;;;;;;;25.80;19.40;;;;;;;13.45;100.00;-18389.97;4985854;28;20053;-88